Terminal Aerodrome Forecast
Issued by NWS Spokane, WA

Home | Current Version | Previous Version | Text Only | Print | Product List | Glossary On
Versions: 1 2 3 4 5 6 7 8 9 10 11 12 13 14 15
000
FTUS46 KOTX 191139
TAFLWS
TAF
KLWS 191139Z 1912/2012 08007KT P6SM SCT250
     FM192000 30012KT P6SM SCT100 BKN140
     FM192300 30018G26KT P6SM BKN100 OVC120
     FM200300 28013G21KT P6SM FEW100
     FM200700 26010KT P6SM FEW100=

USA.gov is the U.S. government's official web portal to all federal, state and local government web resources and services.